Time;durP1;ratioP1;P1;durP2;ratioP2;P2;SDS_P1;SDS_P2;PMS_P1;PMS_P2;Temp;Humidity;BMP_temperature;BMP_pressure;BME280_temperature;BME280_humidity;BME280_pressure;Samples;Min_cycle;Max_cycle;Signal;HPM_P1;HPM_P2
2023/02/19 00:01:50;;;;;;;39.40;16.10;;;;;;;9.34;73.06;98962.79;106870;1283;22571;-79
2023/02/19 00:04:26;;;;;;;32.50;14.80;;;;;;;9.35;72.92;98965.53;106800;1284;22605;-79
2023/02/19 00:06:54;;;;;;;25.80;12.10;;;;;;;9.37;72.94;98960.31;107415;1281;22655;-79
2023/02/19 00:09:23;;;;;;;27.80;13.00;;;;;;;9.38;72.96;98966.54;106813;1283;24465;-79
2023/02/19 00:11:51;;;;;;;30.50;14.10;;;;;;;9.39;73.11;98957.35;106899;1273;22534;-79
2023/02/19 00:14:20;;;;;;;33.10;15.10;;;;;;;9.40;72.97;98970.45;106774;1284;22538;-79
2023/02/19 00:16:49;;;;;;;34.20;14.40;;;;;;;9.41;72.99;98960.56;106907;1284;26523;-79
2023/02/19 00:19:19;;;;;;;28.80;13.00;;;;;;;9.44;73.31;98966.37;106887;1283;24344;-79
2023/02/19 00:21:51;;;;;;;34.10;14.60;;;;;;;9.49;72.97;98955.55;106962;1283;22522;-79
2023/02/19 00:24:20;;;;;;;33.20;14.80;;;;;;;9.48;72.71;98970.77;106880;1283;22562;-79
2023/02/19 00:26:54;;;;;;;30.90;15.00;;;;;;;9.50;72.58;98963.13;106997;1283;22597;-79
2023/02/19 00:29:23;;;;;;;33.50;14.10;;;;;;;9.49;72.69;98951.90;106892;1283;22562;-78
2023/02/19 00:31:54;;;;;;;33.90;15.00;;;;;;;9.43;72.63;98942.35;106702;1283;22566;-79
2023/02/19 00:34:23;;;;;;;33.70;14.80;;;;;;;9.38;72.55;98942.13;106788;1283;25151;-80
2023/02/19 00:36:51;;;;;;;30.70;14.40;;;;;;;9.33;72.62;98945.52;106766;1284;22584;-81
2023/02/19 00:39:20;;;;;;;28.00;14.00;;;;;;;9.31;72.62;98958.54;106853;1283;24343;-79
2023/02/19 00:41:49;;;;;;;33.10;14.70;;;;;;;9.26;72.69;98957.45;106876;1283;22531;-80
2023/02/19 00:44:20;;;;;;;32.00;15.30;;;;;;;9.21;72.77;98945.45;106841;1276;24407;-79
2023/02/19 00:46:49;;;;;;;32.30;16.10;;;;;;;9.18;72.92;98964.36;106820;1276;22536;-78
2023/02/19 00:49:20;;;;;;;33.30;15.70;;;;;;;9.16;72.88;98963.88;106891;1277;23360;-80
2023/02/19 00:51:51;;;;;;;27.40;13.20;;;;;;;9.15;72.83;98968.91;107421;1277;25489;-78
2023/02/19 00:54:21;;;;;;;34.30;14.90;;;;;;;9.16;73.02;98969.75;106829;1283;25498;-79
2023/02/19 00:56:50;;;;;;;35.30;14.80;;;;;;;9.17;73.18;98968.85;106872;1283;23019;-79
2023/02/19 00:59:19;;;;;;;31.50;13.40;;;;;;;9.20;73.26;98965.88;107676;1278;22544;-79
2023/02/19 01:01:50;;;;;;;29.20;12.40;;;;;;;9.21;73.27;98974.49;106900;1283;22528;-79
2023/02/19 01:04:19;;;;;;;32.30;14.00;;;;;;;9.25;73.07;98969.73;106877;1280;22555;-79
2023/02/19 01:06:47;;;;;;;31.40;15.20;;;;;;;9.30;73.19;98984.50;106802;1283;22672;-79
2023/02/19 01:09:16;;;;;;;32.60;15.20;;;;;;;9.35;72.84;98995.64;106742;1266;22580;-80
2023/02/19 01:11:46;;;;;;;32.90;15.20;;;;;;;9.38;72.62;98987.11;106832;1283;25411;-80
2023/02/19 01:14:14;;;;;;;33.60;15.50;;;;;;;9.41;72.35;98985.98;106905;1278;22646;-79
2023/02/19 01:16:43;;;;;;;30.40;14.40;;;;;;;9.44;72.16;98998.90;106814;1281;22532;-79
2023/02/19 01:19:12;;;;;;;34.50;14.60;;;;;;;9.46;72.07;98983.29;107003;1283;25404;-79
2023/02/19 01:21:41;;;;;;;32.20;15.20;;;;;;;9.48;71.93;98987.74;106903;1283;22529;-79
2023/02/19 01:24:13;;;;;;;30.40;14.30;;;;;;;9.49;71.79;98986.67;106905;1276;23535;-79
2023/02/19 01:26:42;;;;;;;30.80;14.50;;;;;;;9.50;71.71;98987.52;106856;1283;22764;-79
2023/02/19 01:29:10;;;;;;;31.20;14.80;;;;;;;9.50;71.59;98993.92;106815;1283;24292;-79
2023/02/19 01:31:40;;;;;;;34.80;15.40;;;;;;;9.52;71.59;99006.67;106795;1283;22845;-79
2023/02/19 01:34:11;;;;;;;31.70;14.40;;;;;;;9.53;71.52;99009.44;106939;1283;22677;-80
2023/02/19 01:36:40;;;;;;;31.40;13.40;;;;;;;9.55;71.42;99018.91;106874;1277;22475;-79
2023/02/19 01:39:09;;;;;;;32.90;13.30;;;;;;;9.58;71.58;99010.88;106909;1267;22622;-80
2023/02/19 01:41:39;;;;;;;30.80;12.80;;;;;;;9.61;71.60;99005.09;106853;1279;22794;-79
2023/02/19 01:44:11;;;;;;;29.90;14.30;;;;;;;9.66;71.60;99006.02;106838;1283;25420;-81
2023/02/19 01:46:43;;;;;;;34.50;14.90;;;;;;;9.68;71.52;99007.36;106842;1277;22654;-79
2023/02/19 01:49:32;;;;;;;32.40;15.20;;;;;;;9.70;71.53;98997.77;108079;1283;23022;-79
2023/02/19 01:52:08;;;;;;;28.40;14.40;;;;;;;9.69;71.01;98994.89;106787;1281;25244;-79
2023/02/19 01:54:41;;;;;;;34.40;15.60;;;;;;;9.69;70.95;98997.64;106852;1277;25363;-80
2023/02/19 01:57:20;;;;;;;35.40;15.30;;;;;;;9.66;70.80;98993.39;106800;1283;22572;-79
2023/02/19 01:59:56;;;;;;;31.20;15.60;;;;;;;9.63;70.92;98998.98;106875;1283;24263;-81
2023/02/19 02:02:26;;;;;;;33.90;14.60;;;;;;;9.60;70.99;98986.77;106731;1284;22354;-80
2023/02/19 02:04:56;;;;;;;31.80;14.50;;;;;;;9.57;70.86;98992.90;106884;1283;23251;-78
2023/02/19 02:10:20;;;;;;;30.40;11.90;;;;;;;9.47;71.25;98985.86;106940;1283;22541;-79
2023/02/19 02:12:51;;;;;;;28.00;12.80;;;;;;;9.45;71.34;98991.60;106852;1283;23097;-79
2023/02/19 02:15:26;;;;;;;34.50;14.10;;;;;;;9.40;71.69;98990.00;106891;1283;23894;-81
2023/02/19 02:18:36;;;;;;;32.90;16.10;;;;;;;9.35;72.04;98992.16;106798;1280;22552;-79
2023/02/19 02:21:34;;;;;;;32.30;14.60;;;;;;;9.34;72.04;98995.66;106834;1273;22550;-80
2023/02/19 02:24:20;;;;;;;38.40;16.40;;;;;;;9.31;72.03;99000.56;102560;1281;5839500;-78
2023/02/19 02:27:22;;;;;;;34.40;16.70;;;;;;;9.29;71.89;98995.77;106908;1283;22544;-79
2023/02/19 02:30:39;;;;;;;34.70;16.00;;;;;;;9.24;71.97;99000.53;106859;1278;24251;-79
2023/02/19 02:33:21;;;;;;;33.40;16.30;;;;;;;9.21;72.09;99007.88;106838;1276;22551;-81
2023/02/19 02:36:01;;;;;;;32.40;14.10;;;;;;;9.18;72.05;99013.13;106857;1284;23025;-79
2023/02/19 02:38:40;;;;;;;32.40;16.10;;;;;;;9.13;72.12;99021.16;106818;1280;24222;-79
2023/02/19 02:41:10;;;;;;;35.00;16.10;;;;;;;9.06;72.22;99031.00;107275;1283;25260;-79
2023/02/19 02:43:40;;;;;;;30.90;13.50;;;;;;;9.03;72.37;99035.39;106816;1283;22555;-79
2023/02/19 02:46:11;;;;;;;30.70;14.30;;;;;;;9.01;72.41;99046.81;106787;1283;24275;-79
2023/02/19 02:48:46;;;;;;;31.00;13.30;;;;;;;8.97;72.70;99045.86;106972;1281;22539;-80
2023/02/19 02:51:32;;;;;;;33.90;13.70;;;;;;;8.93;72.92;99048.71;107463;1283;22597;-81
2023/02/19 02:57:05;;;;;;;30.30;12.30;;;;;;;8.88;73.35;99060.21;107021;1280;25414;-79
2023/02/19 02:59:41;;;;;;;35.50;15.10;;;;;;;8.86;73.45;99066.81;109374;1277;22550;-79
2023/02/19 03:02:26;;;;;;;35.90;16.00;;;;;;;8.84;73.44;99071.70;106753;1284;22578;-79
2023/02/19 03:08:30;;;;;;;27.50;13.60;;;;;;;8.73;73.59;99082.77;106703;1283;22565;-80
2023/02/19 03:20:23;;;;;;;31.20;14.10;;;;;;;8.59;74.15;99096.17;106742;1281;22597;-81
2023/02/19 03:23:02;;;;;;;25.80;11.90;;;;;;;8.61;74.03;99103.38;106743;1283;25530;-78
2023/02/19 03:31:53;;;;;;;29.30;13.60;;;;;;;8.72;74.36;99115.11;106876;1283;24268;-79
2023/02/19 03:34:28;;;;;;;27.10;12.50;;;;;;;8.75;74.41;99121.96;106879;1283;25096;-79
2023/02/19 03:37:09;;;;;;;25.30;11.40;;;;;;;8.81;74.43;99126.02;106834;1281;22539;-78
2023/02/19 03:39:47;;;;;;;31.40;13.80;;;;;;;8.81;74.27;99126.35;106856;1283;22673;-80
2023/02/19 03:42:55;;;;;;;31.60;14.40;;;;;;;8.82;74.15;99124.10;106790;1283;22543;-79
2023/02/19 03:45:49;;;;;;;27.60;13.40;;;;;;;8.78;74.06;99123.66;107730;1270;22543;-79
2023/02/19 03:48:33;;;;;;;33.00;14.00;;;;;;;8.71;74.07;99124.80;106883;1283;25488;-79
2023/02/19 03:51:36;;;;;;;28.60;13.90;;;;;;;8.65;74.09;99118.68;107042;1283;28168;-79
2023/02/19 03:54:18;;;;;;;28.20;13.50;;;;;;;8.58;74.19;99120.70;106870;1283;25438;-79
2023/02/19 03:56:58;;;;;;;26.00;13.10;;;;;;;8.51;74.30;99119.27;106812;1283;22541;-79
2023/02/19 03:59:33;;;;;;;32.30;13.10;;;;;;;8.47;74.35;99112.77;106846;1278;24367;-79
2023/02/19 04:02:10;;;;;;;27.90;13.70;;;;;;;8.41;74.33;99111.80;106948;1276;22534;-79
2023/02/19 04:04:48;;;;;;;31.00;12.30;;;;;;;8.35;74.26;99112.75;106930;1273;22583;-83
2023/02/19 04:07:17;;;;;;;27.10;12.10;;;;;;;8.30;74.43;99108.70;107102;1268;24253;-79
2023/02/19 04:09:49;;;;;;;27.80;12.30;;;;;;;8.25;74.76;99113.60;106878;1283;22535;-81
2023/02/19 04:12:20;;;;;;;31.40;12.80;;;;;;;8.24;75.30;99116.72;106856;1282;22584;-79
2023/02/19 04:15:11;;;;;;;32.40;12.90;;;;;;;8.23;75.48;99116.56;106771;1281;22793;-79
2023/02/19 04:17:46;;;;;;;29.70;13.50;;;;;;;8.24;75.32;99118.63;106848;1276;24412;-79
2023/02/19 04:20:16;;;;;;;29.50;13.50;;;;;;;8.21;75.49;99121.95;106953;1277;22529;-79
2023/02/19 04:22:44;;;;;;;30.10;12.90;;;;;;;8.19;75.79;99126.29;106848;1283;22997;-79
2023/02/19 04:25:13;;;;;;;31.00;13.20;;;;;;;8.19;75.65;99121.79;106909;1281;23299;-79
2023/02/19 04:27:44;;;;;;;33.30;13.30;;;;;;;8.15;75.97;99122.71;106906;1283;22545;-79
2023/02/19 04:30:15;;;;;;;31.40;14.50;;;;;;;8.12;75.93;99117.58;106878;1283;22659;-79
2023/02/19 04:32:44;;;;;;;32.40;14.90;;;;;;;8.08;76.01;99115.06;106891;1283;22575;-83
2023/02/19 04:35:12;;;;;;;32.00;14.80;;;;;;;8.04;76.12;99116.84;106788;1277;24668;-80
2023/02/19 04:37:43;;;;;;;37.50;16.30;;;;;;;8.00;76.00;99116.55;106887;1283;24225;-80
2023/02/19 04:40:12;;;;;;;33.00;14.50;;;;;;;7.95;76.21;99113.85;106909;1280;22569;-79
2023/02/19 04:42:40;;;;;;;33.10;15.90;;;;;;;7.93;76.20;99121.14;106833;1265;22574;-79
2023/02/19 04:45:10;;;;;;;37.00;15.80;;;;;;;7.90;76.05;99123.25;106843;1283;22645;-79
2023/02/19 04:47:39;;;;;;;31.80;15.70;;;;;;;7.87;76.16;99123.30;106872;1279;22559;-79
2023/02/19 04:50:09;;;;;;;34.90;16.60;;;;;;;7.83;76.67;99121.79;106840;1277;25434;-79
2023/02/19 04:52:38;;;;;;;35.80;15.20;;;;;;;7.82;76.76;99119.22;106852;1283;22563;-80
2023/02/19 04:55:08;;;;;;;30.30;13.90;;;;;;;7.81;77.30;99124.57;106939;1283;24251;-79
2023/02/19 04:57:36;;;;;;;31.20;14.10;;;;;;;7.84;77.24;99124.38;107871;1283;23344;-78
2023/02/19 05:00:05;;;;;;;35.00;13.90;;;;;;;7.86;77.92;99118.13;106845;1276;25464;-79
2023/02/19 05:02:34;;;;;;;32.90;14.10;;;;;;;7.91;77.54;99112.54;106880;1277;22526;-80
2023/02/19 05:05:08;;;;;;;34.40;15.40;;;;;;;7.93;77.50;99110.27;106810;1276;22533;-79
2023/02/19 05:07:36;;;;;;;32.40;14.80;;;;;;;7.94;77.57;99108.70;106860;1276;23332;-79
2023/02/19 05:10:05;;;;;;;32.80;15.00;;;;;;;7.96;77.53;99105.91;106826;1260;24289;-79
2023/02/19 05:12:34;;;;;;;35.90;16.20;;;;;;;7.96;77.53;99105.38;106825;1276;24235;-79
2023/02/19 05:15:02;;;;;;;35.10;17.00;;;;;;;7.99;77.58;99098.96;106844;1283;23839;-81
2023/02/19 05:17:34;;;;;;;34.30;16.30;;;;;;;8.00;77.18;99095.16;106842;1283;25377;-79
2023/02/19 05:20:03;;;;;;;37.80;16.60;;;;;;;7.96;77.12;99096.77;106866;1283;25289;-79
2023/02/19 05:22:31;;;;;;;46.20;19.30;;;;;;;7.91;77.07;99105.11;106907;1276;22538;-79
2023/02/19 05:24:59;;;;;;;37.90;18.50;;;;;;;7.86;77.44;99102.25;106924;1283;22556;-79
2023/02/19 05:27:31;;;;;;;36.10;18.40;;;;;;;7.85;77.58;99109.85;106948;1283;23978;-79
2023/02/19 05:30:00;;;;;;;32.60;14.80;;;;;;;7.82;77.58;99115.42;107172;1272;22529;-81
2023/02/19 05:32:31;;;;;;;43.50;17.30;;;;;;;7.81;77.70;99120.44;106897;1276;24205;-79
2023/02/19 05:34:59;;;;;;;38.60;16.10;;;;;;;7.80;77.83;99119.42;107081;1283;23469;-79
2023/02/19 05:37:27;;;;;;;40.70;17.60;;;;;;;7.81;77.59;99123.55;106906;1283;24190;-79
2023/02/19 05:39:56;;;;;;;39.50;18.10;;;;;;;7.81;78.03;99121.14;106937;1283;22590;-81
2023/02/19 05:42:27;;;;;;;36.00;16.50;;;;;;;7.82;78.03;99118.19;106874;1283;23907;-79
2023/02/19 05:44:58;;;;;;;38.90;16.40;;;;;;;7.84;78.07;99116.95;106850;1283;22647;-79
2023/02/19 05:47:29;;;;;;;45.50;18.30;;;;;;;7.85;78.18;99109.17;106889;1276;23306;-79
2023/02/19 05:50:05;;;;;;;37.20;18.70;;;;;;;7.89;78.01;99102.73;106858;1276;22621;-79
2023/02/19 05:52:36;;;;;;;35.80;18.60;;;;;;;7.90;77.98;99101.17;106901;1283;22574;-78
2023/02/19 05:55:05;;;;;;;36.90;16.90;;;;;;;7.92;77.86;99096.83;106848;1283;22629;-79
2023/02/19 05:57:40;;;;;;;38.70;17.80;;;;;;;7.93;77.69;99091.80;106904;1276;22559;-79
2023/02/19 06:00:14;;;;;;;38.20;18.30;;;;;;;7.95;77.56;99090.56;106901;1277;26727;-79
2023/02/19 06:02:43;;;;;;;35.40;17.90;;;;;;;7.96;77.36;99079.86;106860;1283;24395;-79
2023/02/19 06:05:12;;;;;;;34.10;16.80;;;;;;;7.97;77.35;99079.31;106876;1277;24420;-79
2023/02/19 06:07:41;;;;;;;30.70;14.70;;;;;;;8.01;77.13;99078.91;106882;1276;23051;-78
2023/02/19 06:10:20;;;;;;;35.70;15.90;;;;;;;8.02;77.37;99087.70;106874;1283;22667;-79
2023/02/19 06:12:52;;;;;;;34.50;16.20;;;;;;;8.06;77.67;99089.54;106725;1283;25499;-78
2023/02/19 06:15:20;;;;;;;39.00;18.30;;;;;;;8.15;77.60;99090.45;107016;1283;23554;-79
2023/02/19 06:17:49;;;;;;;35.50;16.80;;;;;;;8.25;77.31;99094.27;106877;1283;25388;-79
2023/02/19 06:20:18;;;;;;;35.60;17.80;;;;;;;8.32;76.83;99105.03;106865;1283;25263;-79
2023/02/19 06:22:49;;;;;;;33.80;17.10;;;;;;;8.40;76.50;99103.86;106855;1283;23266;-79
2023/02/19 06:25:18;;;;;;;34.60;18.20;;;;;;;8.44;76.19;99103.65;106844;1278;25260;-79
2023/02/19 06:27:47;;;;;;;36.50;17.30;;;;;;;8.49;75.91;99101.33;106884;1283;25258;-79
2023/02/19 06:30:15;;;;;;;32.50;15.90;;;;;;;8.53;75.79;99107.66;106927;1276;22533;-80
2023/02/19 06:32:47;;;;;;;31.20;13.80;;;;;;;8.58;75.39;99103.42;106902;1283;22695;-80
2023/02/19 06:35:15;;;;;;;35.30;15.00;;;;;;;8.64;75.38;99104.54;106815;1283;23491;-79
2023/02/19 06:37:46;;;;;;;31.40;15.00;;;;;;;8.67;75.32;99106.36;106767;1283;22586;-82
2023/02/19 06:40:20;;;;;;;31.60;14.90;;;;;;;8.74;75.24;99112.98;106775;1280;25345;-79
2023/02/19 06:42:48;;;;;;;32.50;16.30;;;;;;;8.79;75.21;99108.92;106802;1270;23932;-80
2023/02/19 06:45:26;;;;;;;32.80;15.70;;;;;;;8.85;74.77;99108.84;106825;1276;22673;-79
2023/02/19 06:47:55;;;;;;;30.50;15.40;;;;;;;8.88;74.29;99107.92;106917;1283;22774;-79
2023/02/19 06:50:23;;;;;;;32.00;17.30;;;;;;;8.93;73.97;99096.06;106917;1277;27496;-78
2023/02/19 06:53:01;;;;;;;32.70;17.10;;;;;;;8.93;73.78;99102.13;106894;1283;22558;-79
2023/02/19 06:55:40;;;;;;;33.00;16.50;;;;;;;8.96;73.56;99098.77;106865;1283;22525;-79
2023/02/19 06:58:10;;;;;;;35.20;15.80;;;;;;;8.99;73.47;99098.74;106889;1276;23123;-79
2023/02/19 07:00:43;;;;;;;31.40;15.10;;;;;;;9.02;73.41;99096.27;106788;1283;22548;-79
2023/02/19 07:03:12;;;;;;;33.00;13.60;;;;;;;9.05;73.22;99094.11;106844;1283;22536;-79
2023/02/19 07:05:40;;;;;;;32.50;16.00;;;;;;;9.08;73.11;99096.49;106755;1283;22573;-79
2023/02/19 07:08:16;;;;;;;31.90;16.50;;;;;;;9.13;72.75;99100.55;106762;1283;22708;-79
2023/02/19 07:11:09;;;;;;;31.00;16.40;;;;;;;9.15;72.41;99099.96;107747;1283;24411;-82
2023/02/19 07:14:03;;;;;;;24.80;14.10;;;;;;;9.21;72.22;99102.13;106732;1277;25380;-78
2023/02/19 07:16:31;;;;;;;25.30;13.60;;;;;;;9.30;71.95;99100.92;106841;1276;22567;-78
2023/02/19 07:19:00;;;;;;;24.60;13.70;;;;;;;9.35;71.70;99095.59;106834;1277;25505;-79
2023/02/19 07:21:28;;;;;;;25.80;13.80;;;;;;;9.43;71.32;99096.14;106750;1283;25367;-79
2023/02/19 07:23:57;;;;;;;28.90;14.20;;;;;;;9.46;71.26;99100.40;106667;1270;22622;-79
2023/02/19 07:26:26;;;;;;;27.50;14.40;;;;;;;9.51;71.48;99104.80;106764;1283;22628;-79
2023/02/19 07:28:55;;;;;;;26.60;13.30;;;;;;;9.51;71.74;99100.64;106819;1283;22534;-80
2023/02/19 07:31:23;;;;;;;32.10;13.30;;;;;;;9.57;71.71;99094.46;106861;1276;22532;-80
2023/02/19 07:33:53;;;;;;;29.60;13.30;;;;;;;9.58;71.32;99103.62;106870;1273;22600;-79
2023/02/19 07:36:23;;;;;;;31.60;15.80;;;;;;;9.59;71.82;99101.54;106847;1283;25129;-79
2023/02/19 07:38:58;;;;;;;33.40;15.80;;;;;;;9.53;71.99;99096.30;106863;1278;25633;-79
2023/02/19 07:41:27;;;;;;;31.60;16.40;;;;;;;9.52;72.37;99092.86;107476;1283;22532;-79
2023/02/19 07:43:57;;;;;;;33.40;16.70;;;;;;;9.49;72.79;99085.63;106878;1276;24280;-80
2023/02/19 07:46:26;;;;;;;35.50;16.90;;;;;;;9.46;73.10;99082.42;106892;1272;22545;-78
2023/02/19 07:48:54;;;;;;;31.60;16.50;;;;;;;9.45;72.93;99079.32;106899;1283;25439;-79
2023/02/19 07:51:22;;;;;;;32.40;16.20;;;;;;;9.42;73.08;99076.27;106767;1283;22624;-79
2023/02/19 07:53:51;;;;;;;30.60;15.40;;;;;;;9.40;72.80;99078.58;106894;1283;22759;-80
2023/02/19 07:56:20;;;;;;;27.70;13.00;;;;;;;9.41;72.38;99078.21;106989;1283;22738;-80
2023/02/19 07:58:48;;;;;;;30.10;13.70;;;;;;;9.41;71.66;99080.28;106865;1283;22535;-79
2023/02/19 08:04:12;;;;;;;29.80;15.40;;;;;;;9.51;71.47;99070.72;107022;1278;25333;-79
2023/02/19 08:06:41;;;;;;;30.90;13.80;;;;;;;9.54;71.02;99072.22;107109;1283;24273;-79
2023/02/19 08:09:09;;;;;;;29.90;14.80;;;;;;;9.59;71.10;99066.74;106971;1283;25397;-80
2023/02/19 08:14:28;;;;;;;30.50;14.50;;;;;;;9.63;70.41;99078.77;106993;1283;24257;-80
2023/02/19 08:16:56;;;;;;;29.30;13.90;;;;;;;9.67;70.48;99081.46;106966;1283;22729;-79
2023/02/19 08:19:24;;;;;;;27.80;14.30;;;;;;;9.67;70.36;99080.58;107045;1265;22555;-80
2023/02/19 08:21:53;;;;;;;27.10;13.70;;;;;;;9.72;70.39;99077.52;106874;1283;23098;-80
2023/02/19 08:24:21;;;;;;;34.80;14.80;;;;;;;9.76;70.48;99074.86;106999;1273;22663;-79
2023/02/19 08:26:49;;;;;;;30.40;14.90;;;;;;;9.81;70.52;99080.27;106892;1272;22648;-80
2023/02/19 08:29:17;;;;;;;36.40;14.10;;;;;;;9.87;70.27;99083.09;107018;1283;24252;-79
2023/02/19 08:31:46;;;;;;;29.30;14.70;;;;;;;9.91;69.83;99082.49;107058;1276;22575;-81
2023/02/19 08:34:14;;;;;;;30.80;14.00;;;;;;;9.90;69.86;99080.09;107021;1280;22652;-80
2023/02/19 08:36:43;;;;;;;25.40;13.50;;;;;;;9.98;69.64;99082.52;106885;1277;25572;-80
2023/02/19 08:39:11;;;;;;;25.00;13.30;;;;;;;10.05;69.53;99076.11;106861;1277;22718;-80
2023/02/19 08:41:40;;;;;;;30.90;14.30;;;;;;;10.07;69.66;99073.63;106996;1276;22567;-79
2023/02/19 08:44:08;;;;;;;31.70;14.90;;;;;;;10.11;69.54;99072.84;106760;1283;23445;-79
2023/02/19 08:46:36;;;;;;;25.80;14.70;;;;;;;10.10;69.37;99074.95;106801;1283;25640;-79
2023/02/19 08:49:04;;;;;;;29.60;14.60;;;;;;;10.11;69.21;99075.61;106867;1271;22597;-79
2023/02/19 08:51:33;;;;;;;29.10;13.70;;;;;;;10.15;69.46;99076.55;106929;1276;23001;-79
2023/02/19 08:54:03;;;;;;;30.00;14.10;;;;;;;10.24;69.12;99081.55;106905;1283;23913;-79
2023/02/19 08:56:31;;;;;;;29.50;14.40;;;;;;;10.30;69.00;99083.66;107314;1283;26051;-79
2023/02/19 08:58:59;;;;;;;32.20;13.50;;;;;;;10.37;68.95;99080.58;106884;1276;24277;-79
2023/02/19 09:01:28;;;;;;;30.40;13.50;;;;;;;10.43;69.02;99074.36;106911;1276;24517;-80
2023/02/19 09:03:56;;;;;;;26.80;13.40;;;;;;;10.44;68.47;99072.61;106954;1268;22539;-79
2023/02/19 09:06:24;;;;;;;28.30;13.50;;;;;;;10.51;68.24;99071.20;106874;1281;25674;-79
2023/02/19 09:08:53;;;;;;;23.50;11.80;;;;;;;10.56;67.57;99076.47;106918;1283;24236;-79
2023/02/19 09:11:21;;;;;;;24.70;11.30;;;;;;;10.60;67.11;99078.45;106878;1283;22639;-79
2023/02/19 09:13:50;;;;;;;19.10;10.40;;;;;;;10.66;67.03;99077.60;106889;1277;23025;-80
2023/02/19 09:16:21;;;;;;;20.70;10.70;;;;;;;10.69;66.43;99079.60;106831;1261;24257;-80
2023/02/19 09:18:52;;;;;;;22.80;10.80;;;;;;;10.74;66.13;99073.05;106823;1281;22594;-79
2023/02/19 09:21:20;;;;;;;26.60;10.60;;;;;;;10.82;66.24;99070.41;106871;1283;22566;-81
2023/02/19 09:23:51;;;;;;;23.00;10.50;;;;;;;10.96;66.06;99065.00;106910;1271;22661;-79
2023/02/19 09:26:20;;;;;;;27.60;12.20;;;;;;;11.08;65.74;99059.83;106822;1277;23974;-79
2023/02/19 09:28:54;;;;;;;23.70;11.90;;;;;;;11.17;66.06;99059.06;106920;1278;22587;-79
2023/02/19 09:31:22;;;;;;;22.80;11.00;;;;;;;11.25;65.74;99067.02;106883;1280;22582;-79
2023/02/19 09:33:50;;;;;;;22.20;10.70;;;;;;;11.37;65.74;99070.83;106893;1279;22565;-81
2023/02/19 09:36:19;;;;;;;18.20;10.40;;;;;;;11.50;64.81;99064.21;106858;1283;25348;-83
2023/02/19 09:38:47;;;;;;;22.10;9.40;;;;;;;11.61;63.93;99063.70;106843;1278;26436;-79
2023/02/19 09:41:26;;;;;;;20.50;9.40;;;;;;;11.73;63.01;99067.34;106652;1283;22854;-79
2023/02/19 09:43:56;;;;;;;19.40;9.50;;;;;;;11.80;62.95;99069.90;106852;1283;22648;-79
2023/02/19 09:46:48;;;;;;;16.40;8.70;;;;;;;11.84;62.53;99065.10;106861;1262;22604;-79
2023/02/19 09:49:36;;;;;;;16.40;8.90;;;;;;;11.80;62.55;99062.61;106894;1277;22542;-80
2023/02/19 09:52:14;;;;;;;18.90;9.40;;;;;;;11.91;62.50;99050.83;107008;1283;22670;-79
2023/02/19 09:54:44;;;;;;;16.60;8.40;;;;;;;11.98;62.49;99049.05;106928;1276;24291;-79
2023/02/19 09:57:24;;;;;;;15.20;8.90;;;;;;;12.04;61.97;99060.48;106863;1281;23320;-79
2023/02/19 10:00:04;;;;;;;15.90;8.40;;;;;;;12.02;61.78;99057.63;106918;1276;22490;-80
2023/02/19 10:02:33;;;;;;;18.60;9.70;;;;;;;12.07;61.92;99054.17;106871;1271;22566;-80
2023/02/19 10:05:24;;;;;;;20.30;9.40;;;;;;;12.17;61.86;99057.33;106823;1283;22541;-80
2023/02/19 10:07:54;;;;;;;17.50;7.60;;;;;;;12.17;60.51;99059.91;106877;1283;22540;-81
2023/02/19 10:10:33;;;;;;;14.40;8.30;;;;;;;12.06;60.45;99061.98;106960;1283;24457;-79
2023/02/19 10:13:14;;;;;;;14.70;8.10;;;;;;;12.09;60.92;99059.66;106999;1283;22622;-79
2023/02/19 10:15:55;;;;;;;15.50;7.30;;;;;;;12.09;60.34;99068.16;109851;1271;22205;-79
2023/02/19 10:18:27;;;;;;;15.40;7.90;;;;;;;12.16;60.67;99065.52;106866;1283;22519;-79
2023/02/19 10:20:56;;;;;;;16.60;8.70;;;;;;;12.16;60.06;99069.85;106818;1283;22643;-79
2023/02/19 10:23:25;;;;;;;16.00;8.70;;;;;;;12.18;60.85;99068.05;106896;1283;24718;-78
2023/02/19 10:25:56;;;;;;;20.90;9.30;;;;;;;12.12;60.40;99068.09;107032;1283;25368;-79
2023/02/19 10:28:32;;;;;;;16.00;8.30;;;;;;;11.97;60.11;99068.38;106863;1277;22687;-80
2023/02/19 10:31:14;;;;;;;18.20;8.80;;;;;;;11.91;60.80;99061.94;106742;1283;24379;-79
2023/02/19 10:33:52;;;;;;;16.90;9.90;;;;;;;11.90;61.33;99060.59;107143;1283;24260;-79
2023/02/19 10:36:37;;;;;;;15.20;8.40;;;;;;;11.83;60.92;99059.92;106866;1283;25459;-79
2023/02/19 10:39:24;;;;;;;17.00;8.80;;;;;;;11.75;61.04;99049.92;106873;1283;25349;-79
2023/02/19 10:41:57;;;;;;;19.70;9.00;;;;;;;11.77;61.67;99057.31;106940;1273;23759;-79
2023/02/19 10:44:37;;;;;;;21.60;9.40;;;;;;;11.79;61.45;99050.46;106872;1267;22531;-80
2023/02/19 10:47:05;;;;;;;19.60;9.00;;;;;;;11.77;61.67;99046.03;107457;1283;22644;-80
2023/02/19 10:49:43;;;;;;;16.40;8.50;;;;;;;11.82;61.79;99046.23;106922;1277;22536;-80
2023/02/19 10:52:30;;;;;;;20.20;8.40;;;;;;;11.81;62.00;99042.42;106907;1283;22560;-79
2023/02/19 10:55:22;;;;;;;18.70;9.00;;;;;;;11.85;62.39;99033.79;106886;1277;22532;-79
2023/02/19 10:57:53;;;;;;;21.70;9.40;;;;;;;11.89;62.69;99032.83;106833;1283;22545;-79
2023/02/19 11:00:29;;;;;;;28.70;12.80;;;;;;;11.96;63.03;99027.42;106861;1276;25316;-80
2023/02/19 11:03:20;;;;;;;17.00;7.70;;;;;;;12.01;61.76;99019.61;106775;1283;24281;-79
2023/02/19 11:06:10;;;;;;;15.30;8.60;;;;;;;12.05;61.59;99020.36;106653;1281;25223;-79
2023/02/19 11:08:57;;;;;;;16.60;8.50;;;;;;;12.13;62.49;99024.39;106743;1276;25553;-79
2023/02/19 11:11:37;;;;;;;15.80;8.20;;;;;;;12.15;61.63;99018.66;106684;1283;22539;-80
2023/02/19 11:14:21;;;;;;;22.50;7.70;;;;;;;12.17;61.43;99019.27;106826;1283;25317;-79
2023/02/19 11:16:55;;;;;;;14.00;7.20;;;;;;;12.20;60.72;99015.36;107088;1278;24467;-82
2023/02/19 11:19:26;;;;;;;14.70;8.00;;;;;;;12.18;60.88;99012.80;109821;1280;22307;-80
2023/02/19 11:21:57;;;;;;;18.00;8.10;;;;;;;12.21;61.01;99007.69;108338;1283;22546;-79
2023/02/19 11:24:39;;;;;;;19.30;9.30;;;;;;;12.26;61.85;99003.67;106873;1278;22532;-82
2023/02/19 11:27:26;;;;;;;21.00;10.00;;;;;;;12.19;62.42;98999.04;108327;1283;22613;-82
2023/02/19 11:38:21;;;;;;;16.30;8.40;;;;;;;12.42;62.79;98978.81;109705;1285;22587;-79
2023/02/19 11:41:47;;;;;;;15.60;8.50;;;;;;;12.46;61.80;98982.30;109616;1284;22597;-81
2023/02/19 11:45:28;;;;;;;18.10;8.30;;;;;;;12.50;62.28;98964.98;109483;1281;22569;-82
2023/02/19 11:48:53;;;;;;;28.40;15.90;;;;;;;12.53;61.11;98961.03;109550;1282;22092;-82
2023/02/19 11:53:16;;;;;;;20.00;10.50;;;;;;;12.67;61.31;98958.79;109435;1282;23339;-81
2023/02/19 11:56:33;;;;;;;17.80;8.60;;;;;;;12.75;60.95;98962.00;108837;1277;22562;-81
2023/02/19 11:59:55;;;;;;;13.10;7.00;;;;;;;12.83;60.82;98958.73;108899;1284;22527;-82
2023/02/19 12:03:02;;;;;;;11.80;5.90;;;;;;;12.84;60.03;98955.06;109079;1283;24317;-81
2023/02/19 12:06:10;;;;;;;9.40;4.70;;;;;;;12.72;58.97;98963.00;109094;1287;22502;-81
2023/02/19 12:09:00;;;;;;;9.00;4.70;;;;;;;12.58;59.27;98966.93;108726;1285;22897;-81
2023/02/19 12:11:34;;;;;;;8.60;4.70;;;;;;;12.51;59.36;98964.40;108782;1288;22552;-81
2023/02/19 12:14:30;;;;;;;8.70;4.50;;;;;;;12.39;59.70;98967.78;108721;1287;24091;-81
2023/02/19 12:17:17;;;;;;;8.90;4.60;;;;;;;12.36;60.31;98966.15;108971;1287;22556;-81
2023/02/19 12:20:13;;;;;;;12.90;4.80;;;;;;;12.35;60.81;98967.95;106462;1287;25429;-78
2023/02/19 12:22:59;;;;;;;8.50;6.10;;;;;;;12.29;60.67;98968.47;106491;1277;22532;-76
2023/02/19 12:25:51;;;;;;;6.60;3.20;;;;;;;12.20;61.08;98971.89;106547;1287;23947;-78
2023/02/19 12:28:52;;;;;;;9.30;3.00;;;;;;;12.19;61.20;98964.15;106516;1287;25360;-78
2023/02/19 12:31:51;;;;;;;5.70;3.40;;;;;;;12.18;61.73;98969.02;106458;1287;26147;-79
2023/02/19 12:34:32;;;;;;;5.10;2.50;;;;;;;12.18;62.28;98971.11;106521;1286;22578;-76